Time;durP1;ratioP1;P1;durP2;ratioP2;P2;SDS_P1;SDS_P2;PMS_P1;PMS_P2;Temp;Humidity;BMP_temperature;BMP_pressure;BME280_temperature;BME280_humidity;BME280_pressure;Samples;Min_cycle;Max_cycle;Signal;HPM_P1;HPM_P2
2021/05/10 00:00:40;;;;;;;;;;;;;;;4.34;100.00;100848.31;1815365;79;20558;-71
2021/05/10 00:03:07;;;;;;;;;;;;;;;4.30;100.00;100850.81;1815207;79;20211;-69
2021/05/10 00:05:35;;;;;;;;;;;;;;;4.29;100.00;100847.78;1815220;79;20150;-70
2021/05/10 00:08:06;;;;;;;;;;;;;;;4.29;100.00;100850.46;1815203;79;20129;-70
2021/05/10 00:10:33;;;;;;;;;;;;;;;4.28;100.00;100846.06;1815228;79;20220;-71
2021/05/10 00:13:02;;;;;;;;;;;;;;;4.26;100.00;100848.84;1815442;79;20157;-69
2021/05/10 00:15:30;;;;;;;;;;;;;;;4.23;100.00;100841.02;1815182;79;20129;-70
2021/05/10 00:18:03;;;;;;;;;;;;;;;4.21;100.00;100844.30;1815327;79;20181;-70
2021/05/10 00:20:34;;;;;;;;;;;;;;;4.18;100.00;100849.41;1815137;79;20173;-70
2021/05/10 00:23:03;;;;;;;;;;;;;;;4.16;100.00;100849.12;1815257;79;20130;-71
2021/05/10 00:25:32;;;;;;;;;;;;;;;4.12;100.00;100848.98;1815341;79;20145;-69
2021/05/10 00:28:00;;;;;;;;;;;;;;;4.10;100.00;100853.59;1815349;79;20117;-71
2021/05/10 00:30:29;;;;;;;;;;;;;;;4.08;100.00;100858.20;1815234;79;20188;-70
2021/05/10 00:32:57;;;;;;;;;;;;;;;4.06;100.00;100864.16;1815454;79;20228;-70
2021/05/10 00:35:24;;;;;;;;;;;;;;;4.04;100.00;100862.05;1815380;79;20117;-69
2021/05/10 00:37:53;;;;;;;;;;;;;;;4.01;100.00;100861.80;1815244;79;20171;-70
2021/05/10 00:40:22;;;;;;;;;;;;;;;3.99;100.00;100865.06;1814526;78;20250;-70
2021/05/10 00:42:49;;;;;;;;;;;;;;;3.96;100.00;100862.10;1812695;79;20132;-70
2021/05/10 00:45:17;;;;;;;;;;;;;;;3.95;100.00;100862.24;1812657;79;20128;-70
2021/05/10 00:47:44;;;;;;;;;;;;;;;3.94;100.00;100863.19;1812851;79;20116;-71
2021/05/10 00:50:13;;;;;;;;;;;;;;;3.97;100.00;100862.98;1813409;79;20151;-70
2021/05/10 00:52:41;;;;;;;;;;;;;;;4.03;100.00;100861.69;1815063;79;20187;-71
2021/05/10 00:55:09;;;;;;;;;;;;;;;4.10;100.00;100858.95;1815022;79;20223;-70
2021/05/10 00:57:39;;;;;;;;;;;;;;;4.19;100.00;100866.31;1814471;78;20124;-70
2021/05/10 01:00:08;;;;;;;;;;;;;;;4.26;100.00;100857.37;1808308;79;20131;-70
2021/05/10 01:02:35;;;;;;;;;;;;;;;4.31;100.00;100861.42;1814619;79;20127;-70
2021/05/10 01:05:04;;;;;;;;;;;;;;;4.35;100.00;100853.52;1815635;79;20420;-71
2021/05/10 01:07:32;;;;;;;;;;;;;;;4.36;100.00;100859.27;1813000;78;20155;-70
2021/05/10 01:10:01;;;;;;;;;;;;;;;4.36;100.00;100858.42;1814268;78;20287;-70
2021/05/10 01:12:28;;;;;;;;;;;;;;;4.33;100.00;100854.62;1812644;79;20175;-69
2021/05/10 01:14:57;;;;;;;;;;;;;;;4.32;100.00;100858.25;1813970;79;20226;-71
2021/05/10 01:17:24;;;;;;;;;;;;;;;4.29;100.00;100859.34;1814889;79;20116;-70
2021/05/10 01:19:52;;;;;;;;;;;;;;;4.26;100.00;100862.23;1813631;79;20128;-71
2021/05/10 01:22:20;;;;;;;;;;;;;;;4.24;100.00;100855.28;1813826;78;20140;-70
2021/05/10 01:24:47;;;;;;;;;;;;;;;4.20;100.00;100862.69;1829563;78;20147;-70
2021/05/10 01:27:16;;;;;;;;;;;;;;;4.16;100.00;100865.19;1814557;79;20128;-70
2021/05/10 01:29:43;;;;;;;;;;;;;;;4.11;100.00;100868.70;1813884;79;20219;-71
2021/05/10 01:32:11;;;;;;;;;;;;;;;4.06;100.00;100870.35;1812648;79;20139;-70
2021/05/10 01:34:39;;;;;;;;;;;;;;;4.02;100.00;100869.33;1812647;79;20120;-70
2021/05/10 01:37:06;;;;;;;;;;;;;;;3.98;100.00;100871.37;1828212;78;20131;-70
2021/05/10 01:39:34;;;;;;;;;;;;;;;3.94;100.00;100878.75;1848279;78;20194;-70
2021/05/10 01:42:01;;;;;;;;;;;;;;;3.91;100.00;100877.66;1848551;78;20412;-70
2021/05/10 01:44:29;;;;;;;;;;;;;;;3.90;100.00;100877.76;1848379;78;20128;-70
2021/05/10 01:46:57;;;;;;;;;;;;;;;3.87;100.00;100881.48;1848559;77;20386;-70
2021/05/10 01:49:26;;;;;;;;;;;;;;;3.87;100.00;100884.66;1848569;77;20405;-70
2021/05/10 01:51:54;;;;;;;;;;;;;;;3.86;100.00;100884.27;1848674;78;20126;-70
2021/05/10 01:54:21;;;;;;;;;;;;;;;3.86;100.00;100887.82;1848658;78;20175;-70
2021/05/10 01:56:49;;;;;;;;;;;;;;;3.84;100.00;100887.05;1848729;77;20468;-70
2021/05/10 01:59:16;;;;;;;;;;;;;;;3.84;100.00;100888.88;1848573;78;20124;-70
2021/05/10 02:01:44;;;;;;;;;;;;;;;3.82;100.00;100888.98;1848534;77;20421;-70
2021/05/10 02:04:12;;;;;;;;;;;;;;;3.80;100.00;100885.06;1832860;78;20151;-70
2021/05/10 02:06:39;;;;;;;;;;;;;;;3.82;100.00;100892.14;1848556;78;20151;-69
2021/05/10 02:09:07;;;;;;;;;;;;;;;3.83;100.00;100895.20;1848707;78;20128;-70
2021/05/10 02:11:35;;;;;;;;;;;;;;;3.83;100.00;100905.42;1849130;78;20511;-68
2021/05/10 02:14:02;;;;;;;;;;;;;;;3.84;100.00;100904.44;1848966;78;20143;-67
2021/05/10 02:16:31;;;;;;;;;;;;;;;3.87;100.00;100906.91;1850135;78;20127;-65
2021/05/10 02:19:00;;;;;;;;;;;;;;;3.86;100.00;100908.34;1852130;78;20192;-66
2021/05/10 02:21:29;;;;;;;;;;;;;;;3.84;100.00;100904.44;1849823;78;20234;-70
2021/05/10 02:23:58;;;;;;;;;;;;;;;3.83;100.00;100901.89;1849355;78;20147;-71
2021/05/10 02:26:26;;;;;;;;;;;;;;;3.85;100.00;100907.50;1848704;78;20249;-70
2021/05/10 02:28:53;;;;;;;;;;;;;;;3.86;100.00;100913.23;1848394;78;20218;-70
2021/05/10 02:31:21;;;;;;;;;;;;;;;3.87;100.00;100910.08;1848337;78;20131;-70
2021/05/10 02:33:49;;;;;;;;;;;;;;;3.87;100.00;100920.77;1848625;78;20127;-70
2021/05/10 02:36:16;;;;;;;;;;;;;;;3.87;100.00;100923.45;1845984;77;20131;-70
2021/05/10 02:38:43;;;;;;;;;;;;;;;3.87;100.00;100921.63;1813680;79;20163;-69
2021/05/10 02:41:11;;;;;;;;;;;;;;;3.87;100.00;100916.77;1815048;79;20227;-69
2021/05/10 02:43:38;;;;;;;;;;;;;;;3.89;100.00;100922.86;1812876;79;20120;-70
2021/05/10 02:46:06;;;;;;;;;;;;;;;3.88;100.00;100923.35;1813443;79;20116;-70
2021/05/10 02:48:34;;;;;;;;;;;;;;;3.89;100.00;100932.22;1814256;79;20128;-70
2021/05/10 02:51:02;;;;;;;;;;;;;;;3.92;100.00;100935.55;1815205;79;20116;-69
2021/05/10 02:53:30;;;;;;;;;;;;;;;3.96;100.00;100933.52;1813065;79;20127;-70
2021/05/10 02:55:57;;;;;;;;;;;;;;;3.98;100.00;100928.91;1814144;79;20128;-70
2021/05/10 02:58:25;;;;;;;;;;;;;;;4.00;100.00;100928.31;1813041;79;20535;-69
2021/05/10 03:00:52;;;;;;;;;;;;;;;3.99;100.00;100937.32;1812939;79;20116;-70
2021/05/10 03:03:21;;;;;;;;;;;;;;;4.00;100.00;100935.00;1813328;79;20389;-69
2021/05/10 03:05:51;;;;;;;;;;;;;;;4.03;100.00;100940.14;1814858;78;20369;-70
2021/05/10 03:08:18;;;;;;;;;;;;;;;4.07;100.00;100944.80;1813296;79;20424;-70
2021/05/10 03:10:47;;;;;;;;;;;;;;;4.10;100.00;100941.92;1814167;79;20167;-70
2021/05/10 03:13:15;;;;;;;;;;;;;;;4.13;100.00;100943.05;1814268;79;20400;-70
2021/05/10 03:15:43;;;;;;;;;;;;;;;4.16;100.00;100938.80;1814786;79;20223;-68
2021/05/10 03:18:11;;;;;;;;;;;;;;;4.19;100.00;100942.61;1812742;79;20147;-70
2021/05/10 03:20:39;;;;;;;;;;;;;;;4.23;100.00;100937.89;1812950;79;20238;-71
2021/05/10 03:23:06;;;;;;;;;;;;;;;4.26;100.00;100943.89;1814656;79;20129;-70
2021/05/10 03:25:34;;;;;;;;;;;;;;;4.30;100.00;100940.51;1813935;79;20132;-70
2021/05/10 03:28:02;;;;;;;;;;;;;;;4.38;100.00;100944.85;1815058;78;20397;-71
2021/05/10 03:30:30;;;;;;;;;;;;;;;4.47;100.00;100945.53;1813161;78;20377;-70
2021/05/10 03:32:57;;;;;;;;;;;;;;;4.56;100.00;100941.34;1812739;79;20243;-70
2021/05/10 03:35:25;;;;;;;;;;;;;;;4.65;100.00;100947.86;1813056;79;20128;-69
2021/05/10 03:37:52;;;;;;;;;;;;;;;4.78;100.00;100944.67;1815389;79;20181;-70
2021/05/10 03:40:20;;;;;;;;;;;;;;;4.88;100.00;100944.84;1815120;79;20121;-70
2021/05/10 03:42:48;;;;;;;;;;;;;;;4.92;100.00;100947.20;1815383;79;20133;-70
2021/05/10 03:45:16;;;;;;;;;;;;;;;4.98;100.00;100951.25;1815494;79;20148;-70
2021/05/10 03:47:44;;;;;;;;;;;;;;;5.06;100.00;100950.67;1803591;79;20166;-70
2021/05/10 03:50:13;;;;;;;;;;;;;;;5.13;100.00;100954.15;1812146;79;20217;-69
2021/05/10 03:52:40;;;;;;;;;;;;;;;5.21;100.00;100952.72;1815554;79;20248;-70
2021/05/10 03:55:09;;;;;;;;;;;;;;;5.29;100.00;100944.48;1815291;79;20130;-70
2021/05/10 03:57:37;;;;;;;;;;;;;;;5.38;100.00;100955.47;1815260;79;20134;-69
2021/05/10 04:00:06;;;;;;;;;;;;;;;5.46;100.00;100950.39;1815208;79;20228;-70
2021/05/10 04:02:35;;;;;;;;;;;;;;;5.55;100.00;100947.01;1815443;79;20392;-70
2021/05/10 04:15:38;;;;;;;;;;;;;;;6.21;100.00;100959.38;1788116;80;20139;-70
2021/05/10 04:18:05;;;;;;;;;;;;;;;6.38;100.00;100959.41;1788178;80;20135;-70
2021/05/10 04:20:33;;;;;;;;;;;;;;;6.54;100.00;100960.39;1788188;80;20502;-71
2021/05/10 04:23:00;;;;;;;;;;;;;;;6.70;100.00;100960.52;1784603;80;20171;-70
2021/05/10 04:25:27;;;;;;;;;;;;;;;6.84;100.00;100951.69;1772552;81;20532;-69
2021/05/10 04:27:55;;;;;;;;;;;;;;;7.02;100.00;100952.52;1772623;81;20179;-69
2021/05/10 04:30:24;;;;;;;;;;;;;;;7.19;100.00;100956.02;1772628;81;20152;-71
2021/05/10 04:32:59;;;;;;;;;;;;;;;7.40;100.00;100957.89;1772604;81;20168;-70
2021/05/10 04:35:27;;;;;;;;;;;;;;;7.64;100.00;100955.48;1769609;81;20168;-70
2021/05/10 04:37:55;;;;;;;;;;;;;;;7.87;100.00;100947.64;1781024;80;20452;-71
2021/05/10 04:40:23;;;;;;;;;;;;;;;8.13;100.00;100951.30;1758006;80;20171;-70
2021/05/10 04:42:51;;;;;;;;;;;;;;;8.38;100.00;100944.61;1783570;80;20198;-71
2021/05/10 04:45:18;;;;;;;;;;;;;;;8.60;100.00;100942.73;1783562;80;20151;-69
2021/05/10 04:47:47;;;;;;;;;;;;;;;8.77;100.00;100938.55;1809936;79;20144;-71
2021/05/10 04:50:15;;;;;;;;;;;;;;;8.90;100.00;100935.09;1824559;79;20220;-71
2021/05/10 04:52:44;;;;;;;;;;;;;;;9.03;100.00;100937.05;1814889;79;20149;-70
2021/05/10 04:55:12;;;;;;;;;;;;;;;9.15;100.00;100936.41;1813767;79;20149;-71
2021/05/10 04:57:40;;;;;;;;;;;;;;;9.30;100.00;100937.72;1813882;79;20454;-70
2021/05/10 05:00:10;;;;;;;;;;;;;;;9.43;100.00;100941.98;1814086;79;20141;-69
2021/05/10 05:02:37;;;;;;;;;;;;;;;9.54;100.00;100937.78;1813930;79;20505;-72
2021/05/10 05:05:06;;;;;;;;;;;;;;;9.68;100.00;100934.68;1813916;79;20133;-70
2021/05/10 05:07:34;;;;;;;;;;;;;;;9.83;100.00;100932.88;1814162;79;20280;-69
2021/05/10 05:10:03;;;;;;;;;;;;;;;10.01;100.00;100937.05;1814144;79;20129;-72
2021/05/10 05:12:31;;;;;;;;;;;;;;;10.16;100.00;100938.26;1814328;79;20256;-69
2021/05/10 05:15:00;;;;;;;;;;;;;;;10.41;100.00;100933.23;1814152;79;20470;-69
2021/05/10 05:17:28;;;;;;;;;;;;;;;10.59;100.00;100935.53;1813907;79;20137;-69
2021/05/10 05:19:56;;;;;;;;;;;;;;;10.78;100.00;100928.30;1813718;79;20161;-70
2021/05/10 05:22:23;;;;;;;;;;;;;;;10.96;100.00;100929.21;1813692;79;20188;-69
2021/05/10 05:24:56;;;;;;;;;;;;;;;11.11;100.00;100920.56;1815986;79;20426;-69
2021/05/10 05:27:21;;;;;;;;;;;;;;;11.20;100.00;100927.25;1820014;79;20145;-70
2021/05/10 05:29:49;;;;;;;;;;;;;;;11.33;99.98;100930.95;1821804;79;20193;-71
2021/05/10 05:32:17;;;;;;;;;;;;;;;11.40;95.17;100932.52;1821896;79;20375;-70
2021/05/10 05:34:45;;;;;;;;;;;;;;;11.46;95.37;100930.56;1821940;79;20383;-71
2021/05/10 05:37:12;;;;;;;;;;;;;;;11.57;99.38;100927.60;1833895;78;20130;-71
2021/05/10 05:39:40;;;;;;;;;;;;;;;11.77;97.62;100926.07;1848280;78;20186;-71
2021/05/10 05:42:08;;;;;;;;;;;;;;;12.00;95.64;100922.89;1848614;78;20381;-71
2021/05/10 05:44:37;;;;;;;;;;;;;;;12.24;96.32;100916.27;1848448;77;20507;-71
2021/05/10 05:47:05;;;;;;;;;;;;;;;12.54;93.69;100918.13;1848361;78;20166;-70
2021/05/10 05:49:34;;;;;;;;;;;;;;;12.82;90.17;100911.97;1848364;78;20127;-70
2021/05/10 05:52:05;;;;;;;;;;;;;;;13.04;86.71;100913.72;1848726;78;20669;-70
2021/05/10 05:54:33;;;;;;;;;;;;;;;13.18;80.68;100913.07;1848551;78;20238;-70
2021/05/10 05:57:00;;;;;;;;;;;;;;;13.28;83.18;100913.77;1848563;78;20456;-72
2021/05/10 05:59:29;;;;;;;;;;;;;;;13.47;82.60;100912.64;1848635;77;20519;-69
2021/05/10 06:01:56;;;;;;;;;;;;;;;13.63;78.87;100913.16;1848411;78;20127;-70
2021/05/10 06:04:24;;;;;;;;;;;;;;;13.67;73.24;100911.80;1848599;78;20472;-70
2021/05/10 06:06:51;;;;;;;;;;;;;;;13.56;75.73;100904.48;1848774;78;20242;-70
2021/05/10 06:09:21;;;;;;;;;;;;;;;13.68;79.33;100899.88;1848276;78;20218;-71
2021/05/10 06:11:49;;;;;;;;;;;;;;;13.99;80.53;100901.91;1848705;78;20452;-71
2021/05/10 06:14:16;;;;;;;;;;;;;;;14.34;72.43;100896.20;1848778;78;20183;-72
2021/05/10 06:16:44;;;;;;;;;;;;;;;14.43;59.33;100901.46;1848771;78;20397;-72
2021/05/10 06:19:12;;;;;;;;;;;;;;;14.40;63.97;100900.44;1848728;78;20139;-72
2021/05/10 06:21:40;;;;;;;;;;;;;;;14.45;60.59;100893.12;1848762;78;20115;-72
2021/05/10 06:24:08;;;;;;;;;;;;;;;14.42;61.51;100895.67;1848798;78;20202;-70
2021/05/10 06:26:35;;;;;;;;;;;;;;;14.49;60.22;100889.02;1849014;77;20139;-69
2021/05/10 06:29:03;;;;;;;;;;;;;;;14.56;58.59;100886.45;1849132;78;20131;-73
2021/05/10 06:31:30;;;;;;;;;;;;;;;14.68;59.84;100878.27;1851634;78;20213;-73
2021/05/10 06:33:58;;;;;;;;;;;;;;;14.87;58.09;100874.23;1850669;78;20389;-74
2021/05/10 06:36:26;;;;;;;;;;;;;;;14.97;55.71;100867.20;1849028;77;20253;-72
2021/05/10 06:38:53;;;;;;;;;;;;;;;15.11;55.02;100865.06;1849320;78;20211;-74
2021/05/10 06:41:21;;;;;;;;;;;;;;;15.33;52.96;100866.11;1848469;78;20207;-74
2021/05/10 06:43:49;;;;;;;;;;;;;;;15.56;51.48;100851.11;1847073;78;20384;-72
2021/05/10 06:46:16;;;;;;;;;;;;;;;15.72;46.53;100856.05;1814477;78;20142;-71
2021/05/10 06:48:44;;;;;;;;;;;;;;;15.66;46.44;100849.47;1813560;78;20277;-73
2021/05/10 06:51:12;;;;;;;;;;;;;;;15.54;49.69;100846.84;1813545;79;20420;-71
2021/05/10 06:53:39;;;;;;;;;;;;;;;15.72;53.03;100853.33;1803941;79;20128;-72
2021/05/10 06:56:07;;;;;;;;;;;;;;;16.02;52.13;100846.06;1813745;79;20135;-73
2021/05/10 06:58:34;;;;;;;;;;;;;;;16.22;49.43;100831.86;1813349;79;20131;-73
2021/05/10 07:01:02;;;;;;;;;;;;;;;16.29;46.26;100837.75;1830832;78;20135;-74
2021/05/10 07:03:30;;;;;;;;;;;;;;;16.31;47.43;100829.38;1813752;79;20116;-72
2021/05/10 07:05:58;;;;;;;;;;;;;;;16.25;49.04;100831.48;1813540;79;20136;-72
2021/05/10 07:08:25;;;;;;;;;;;;;;;16.29;51.34;100832.83;1813596;79;20258;-73
2021/05/10 07:10:54;;;;;;;;;;;;;;;16.50;47.72;100823.83;1813732;79;20228;-71
2021/05/10 07:13:22;;;;;;;;;;;;;;;16.67;46.86;100821.73;1814640;78;20165;-72
2021/05/10 07:15:50;;;;;;;;;;;;;;;16.92;41.64;100809.96;1814198;78;20146;-72
2021/05/10 07:18:21;;;;;;;;;;;;;;;17.12;38.79;100821.08;1815060;78;20241;-72
2021/05/10 07:20:49;;;;;;;;;;;;;;;17.38;38.96;100823.22;1815141;79;22048;-73
2021/05/10 07:23:17;;;;;;;;;;;;;;;17.62;36.83;100807.45;1813605;79;20120;-74
2021/05/10 07:25:47;;;;;;;;;;;;;;;17.78;36.80;100817.25;1812759;78;20154;-73
2021/05/10 07:28:17;;;;;;;;;;;;;;;17.72;35.96;100810.66;1812291;79;20144;-74
2021/05/10 07:30:45;;;;;;;;;;;;;;;17.49;36.08;100810.06;1810686;79;20131;-72
2021/05/10 07:33:13;;;;;;;;;;;;;;;17.27;36.22;100814.20;1807803;79;20388;-72
2021/05/10 07:35:41;;;;;;;;;;;;;;;17.28;37.52;100804.94;1802286;80;20190;-72
2021/05/10 07:38:09;;;;;;;;;;;;;;;17.34;37.26;100814.27;1816605;79;20133;-73
2021/05/10 07:40:37;;;;;;;;;;;;;;;17.36;37.23;100812.17;1818678;79;20176;-73
2021/05/10 07:43:04;;;;;;;;;;;;;;;17.39;36.84;100807.16;1814101;79;20210;-74
2021/05/10 07:45:33;;;;;;;;;;;;;;;17.48;37.94;100801.56;1811867;78;20134;-73
2021/05/10 07:48:00;;;;;;;;;;;;;;;17.49;36.02;100793.66;1812728;78;20271;-73
2021/05/10 07:50:28;;;;;;;;;;;;;;;17.31;37.90;100799.09;1809679;79;20260;-74
2021/05/10 07:52:58;;;;;;;;;;;;;;;17.09;37.19;100809.20;1808288;78;20235;-73
2021/05/10 07:55:25;;;;;;;;;;;;;;;16.85;38.32;100796.75;1814093;78;20150;-72
2021/05/10 07:57:53;;;;;;;;;;;;;;;16.77;39.77;100793.61;1807141;78;20174;-73
2021/05/10 08:00:29;;;;;;;;;;;;;;;16.91;39.14;100793.77;1811440;79;20219;-78
2021/05/10 08:02:53;;;;;;;;;;;;;;;17.16;38.90;100792.87;1817184;78;20445;-75
2021/05/10 08:05:21;;;;;;;;;;;;;;;17.52;37.70;100780.44;1810647;78;20167;-72
2021/05/10 08:07:51;;;;;;;;;;;;;;;17.80;36.49;100775.48;1828778;78;20196;-73
2021/05/10 08:10:20;;;;;;;;;;;;;;;17.89;35.50;100787.15;1835091;78;20131;-74
2021/05/10 08:12:48;;;;;;;;;;;;;;;17.99;35.63;100777.53;1834855;78;20167;-72
2021/05/10 08:15:17;;;;;;;;;;;;;;;18.26;36.31;100772.19;1834842;78;20149;-73
2021/05/10 08:17:45;;;;;;;;;;;;;;;18.51;34.05;100770.28;1811367;78;20201;-73
2021/05/10 08:20:14;;;;;;;;;;;;;;;18.78;33.84;100781.61;1801267;78;20209;-72
2021/05/10 08:22:42;;;;;;;;;;;;;;;18.92;31.90;100755.12;1806101;78;20225;-72
2021/05/10 08:25:12;;;;;;;;;;;;;;;18.88;33.24;100770.83;1813230;78;20135;-72
2021/05/10 08:27:40;;;;;;;;;;;;;;;18.89;33.88;100771.13;1813228;78;20294;-73
2021/05/10 08:30:09;;;;;;;;;;;;;;;19.00;32.69;100754.09;1815243;79;20129;-73
2021/05/10 08:32:37;;;;;;;;;;;;;;;19.02;33.16;100750.61;1814662;78;20480;-72
2021/05/10 08:35:05;;;;;;;;;;;;;;;18.86;31.22;100764.19;1814503;79;20188;-72
2021/05/10 08:37:33;;;;;;;;;;;;;;;18.48;32.37;100755.63;1815248;78;20287;-72
2021/05/10 08:40:00;;;;;;;;;;;;;;;18.36;33.82;100759.47;1815339;79;20275;-73
2021/05/10 08:42:27;;;;;;;;;;;;;;;18.19;32.79;100749.41;1788154;79;20424;-71
2021/05/10 08:44:56;;;;;;;;;;;;;;;17.87;32.92;100743.58;1812575;77;20165;-72
2021/05/10 08:49:55;;;;;;;;;;;;;;;17.44;34.45;100745.03;1710961;83;20207;-72
2021/05/10 08:52:23;;;;;;;;;;;;;;;17.44;36.98;100749.14;1710332;83;20208;-71
2021/05/10 08:54:51;;;;;;;;;;;;;;;17.70;35.72;100723.03;1709172;83;20839;-71
2021/05/10 08:57:19;;;;;;;;;;;;;;;18.12;35.36;100737.06;1715263;83;20264;-73
2021/05/10 08:59:46;;;;;;;;;;;;;;;18.61;36.04;100736.50;1715939;82;20135;-72
2021/05/10 09:02:14;;;;;;;;;;;;;;;19.18;34.41;100737.02;1715248;83;20457;-74
2021/05/10 09:04:43;;;;;;;;;;;;;;;19.62;32.59;100722.30;1715746;83;20556;-72
2021/05/10 09:07:19;;;;;;;;;;;;;;;19.66;30.99;100724.41;1702074;83;20220;-71
2021/05/10 09:12:51;;;;;;;;;;;;;;;19.73;32.81;100728.52;1852193;77;20240;-73
2021/05/10 09:15:30;;;;;;;;;;;;;;;19.82;30.55;100716.81;1800375;79;20516;-72
2021/05/10 09:18:05;;;;;;;;;;;;;;;19.87;32.22;100720.59;1779156;79;20202;-72
2021/05/10 09:20:40;;;;;;;;;;;;;;;20.11;32.08;100707.19;1793609;79;20155;-73
2021/05/10 09:23:12;;;;;;;;;;;;;;;20.25;31.48;100712.09;1805212;79;20136;-77
2021/05/10 09:25:43;;;;;;;;;;;;;;;20.28;29.77;100701.52;1796431;79;20190;-72
2021/05/10 09:28:20;;;;;;;;;;;;;;;20.20;29.86;100694.92;1798034;79;20172;-73
2021/05/10 09:30:55;;;;;;;;;;;;;;;20.03;29.63;100683.58;1779263;80;20147;-73
2021/05/10 09:33:27;;;;;;;;;;;;;;;19.69;29.99;100704.78;1723935;83;20248;-75
2021/05/10 09:36:02;;;;;;;;;;;;;;;19.40;30.59;100697.87;1724649;83;20265;-75
2021/05/10 09:38:29;;;;;;;;;;;;;;;19.41;31.08;100691.88;1724420;83;20156;-75
2021/05/10 09:41:02;;;;;;;;;;;;;;;19.70;31.90;100683.13;1724495;83;20152;-74
2021/05/10 09:43:38;;;;;;;;;;;;;;;20.04;31.15;100685.28;1855896;77;20238;-74
2021/05/10 09:46:07;;;;;;;;;;;;;;;19.97;30.77;100697.33;1825423;79;20414;-74
2021/05/10 09:48:38;;;;;;;;;;;;;;;19.88;29.83;100694.84;1795911;79;20423;-76
2021/05/10 09:51:14;;;;;;;;;;;;;;;19.95;30.37;100681.07;1815674;79;20143;-78
2021/05/10 09:53:48;;;;;;;;;;;;;;;20.09;30.54;100679.95;1816854;79;20160;-74
2021/05/10 09:58:58;;;;;;;;;;;;;;;20.52;30.53;100672.12;1793953;79;20150;-75
2021/05/10 10:01:40;;;;;;;;;;;;;;;20.59;31.04;100673.78;1819783;79;20147;-77
2021/05/10 10:04:08;;;;;;;;;;;;;;;20.77;30.41;100664.80;1819326;79;20205;-78
2021/05/10 10:06:37;;;;;;;;;;;;;;;20.83;29.28;100662.52;1821085;79;20239;-77
2021/05/10 10:09:05;;;;;;;;;;;;;;;20.85;29.25;100650.76;1825391;79;20274;-75
2021/05/10 10:11:32;;;;;;;;;;;;;;;20.97;29.60;100655.55;1825107;79;20298;-78
2021/05/10 10:14:03;;;;;;;;;;;;;;;21.13;27.91;100649.47;1810138;79;20209;-77
2021/05/10 10:16:32;;;;;;;;;;;;;;;21.00;28.34;100641.33;1826194;79;20266;-75
2021/05/10 10:19:02;;;;;;;;;;;;;;;20.96;29.61;100638.19;1821467;79;20262;-76
2021/05/10 10:21:31;;;;;;;;;;;;;;;21.11;29.33;100619.16;1821705;79;20147;-72
2021/05/10 10:24:03;;;;;;;;;;;;;;;21.19;29.18;100621.59;1815186;79;20139;-71
2021/05/10 10:26:33;;;;;;;;;;;;;;;21.02;27.69;100616.69;1792063;80;20288;-69
2021/05/10 10:29:08;;;;;;;;;;;;;;;20.66;28.95;100616.91;1795323;79;20150;-73
2021/05/10 10:31:46;;;;;;;;;;;;;;;20.36;28.62;100613.93;1775195;80;20178;-75
2021/05/10 10:34:27;;;;;;;;;;;;;;;19.88;28.58;100615.27;1786391;80;20307;-72
2021/05/10 10:36:59;;;;;;;;;;;;;;;19.82;29.42;100599.66;1771574;80;20201;-74
2021/05/10 10:39:28;;;;;;;;;;;;;;;20.09;28.61;100594.84;1791942;80;20150;-74
2021/05/10 10:42:09;;;;;;;;;;;;;;;20.40;29.12;100573.96;1778969;80;20177;-74
2021/05/10 10:47:44;;;;;;;;;;;;;;;21.09;26.70;100586.89;1846073;76;20131;-70
2021/05/10 10:50:19;;;;;;;;;;;;;;;21.12;27.09;100582.33;1784484;80;20180;-68
2021/05/10 10:52:57;;;;;;;;;;;;;;;21.32;26.86;100560.09;1815455;79;20143;-71
2021/05/10 10:55:30;;;;;;;;;;;;;;;21.32;27.41;100563.70;1784676;79;20272;-74
2021/05/10 10:58:22;;;;;;;;;;;;;;;21.27;27.44;100563.55;1791719;79;20381;-70
2021/05/10 11:01:21;;;;;;;;;;;;;;;21.27;26.93;100565.47;1792200;79;20134;-75
2021/05/10 11:03:49;;;;;;;;;;;;;;;21.18;26.51;100558.06;1784354;79;20148;-70
2021/05/10 11:06:17;;;;;;;;;;;;;;;21.09;26.97;100559.40;1800491;79;20182;-71
2021/05/10 11:08:51;;;;;;;;;;;;;;;21.13;26.93;100541.40;1784138;80;20241;-76
2021/05/10 11:11:33;;;;;;;;;;;;;;;21.28;27.30;100535.50;1784318;80;20177;-70
2021/05/10 11:14:01;;;;;;;;;;;;;;;21.53;27.49;100545.06;1784076;80;20142;-70
2021/05/10 11:16:46;;;;;;;;;;;;;;;21.58;27.43;100541.08;1784191;80;20399;-70
2021/05/10 11:19:36;;;;;;;;;;;;;;;21.55;26.28;100527.81;1784277;80;20414;-72
2021/05/10 11:22:25;;;;;;;;;;;;;;;21.14;26.93;100527.94;1794316;79;20130;-72
2021/05/10 11:24:56;;;;;;;;;;;;;;;20.97;27.19;100531.30;1782618;80;20143;-75
2021/05/10 11:27:29;;;;;;;;;;;;;;;20.93;26.94;100517.72;1773591;78;20136;-71
2021/05/10 11:29:57;;;;;;;;;;;;;;;20.89;27.33;100532.13;1773355;81;20164;-66
2021/05/10 11:32:26;;;;;;;;;;;;;;;21.04;27.68;100537.56;1760296;81;20154;-70
2021/05/10 11:34:56;;;;;;;;;;;;;;;21.28;27.22;100526.71;1765828;81;20144;-71
2021/05/10 11:37:26;;;;;;;;;;;;;;;21.42;25.62;100520.52;1736802;82;20245;-66
2021/05/10 11:40:01;;;;;;;;;;;;;;;21.29;26.94;100498.16;1869806;76;20236;-68
2021/05/10 11:42:29;;;;;;;;;;;;;;;21.29;26.72;100508.32;1816056;79;20417;-74
2021/05/10 11:45:01;;;;;;;;;;;;;;;21.32;27.03;100510.59;1816007;79;20143;-77
2021/05/10 11:47:31;;;;;;;;;;;;;;;21.11;26.82;100510.55;1817099;79;20227;-78
2021/05/10 11:50:01;;;;;;;;;;;;;;;21.01;26.84;100494.58;1803977;79;20154;-76
2021/05/10 11:52:30;;;;;;;;;;;;;;;20.96;28.01;100492.50;1798855;79;20436;-81
2021/05/10 11:55:02;;;;;;;;;;;;;;;21.14;27.21;100488.07;1804298;79;20480;-77
2021/05/10 11:57:31;;;;;;;;;;;;;;;21.32;27.69;100481.70;1795739;78;20229;-78
2021/05/10 12:02:32;;;;;;;;;;;;;;;21.64;26.41;100484.28;1801304;78;20407;-78
2021/05/10 12:05:06;;;;;;;;;;;;;;;21.66;26.19;100474.73;1795782;79;20232;-79
2021/05/10 12:07:34;;;;;;;;;;;;;;;21.66;26.97;100484.36;1786118;79;20185;-79
2021/05/10 12:10:12;;;;;;;;;;;;;;;21.51;25.94;100476.51;1793323;79;20246;-79
2021/05/10 12:12:47;;;;;;;;;;;;;;;21.34;25.74;100465.84;1817152;78;20232;-79
2021/05/10 12:15:26;;;;;;;;;;;;;;;21.11;26.54;100463.27;1810689;79;20203;-77
2021/05/10 12:20:36;;;;;;;;;;;;;;;21.33;27.21;100473.23;1856417;76;20226;-79
2021/05/10 12:23:04;;;;;;;;;;;;;;;21.36;25.94;100472.77;1789251;79;20134;-78
2021/05/10 12:25:37;;;;;;;;;;;;;;;21.34;25.63;100462.55;1778798;79;20660;-82
2021/05/10 12:28:13;;;;;;;;;;;;;;;21.21;26.34;100458.06;1814323;79;20153;-78
2021/05/10 12:30:49;;;;;;;;;;;;;;;21.15;27.21;100459.52;1777120;80;20160;-78
2021/05/10 12:33:22;;;;;;;;;;;;;;;21.25;26.96;100454.31;1750787;81;20186;-78
2021/05/10 12:35:54;;;;;;;;;;;;;;;21.41;26.23;100455.05;1754192;81;21047;-77
2021/05/10 12:38:37;;;;;;;;;;;;;;;21.49;25.76;100452.52;1755174;80;20215;-80
2021/05/10 12:41:07;;;;;;;;;;;;;;;21.55;26.08;100459.03;1770817;81;20405;-77
2021/05/10 12:43:45;;;;;;;;;;;;;;;21.53;25.94;100445.50;1770635;81;20121;-77
2021/05/10 12:46:13;;;;;;;;;;;;;;;21.57;27.31;100443.95;1753793;80;20186;-77
2021/05/10 12:48:43;;;;;;;;;;;;;;;21.82;26.66;100442.95;1759637;81;20152;-78
2021/05/10 12:51:15;;;;;;;;;;;;;;;21.80;25.88;100448.69;1744577;81;20214;-77
2021/05/10 12:53:53;;;;;;;;;;;;;;;21.70;25.93;100442.91;1744606;81;20143;-79
2021/05/10 12:56:22;;;;;;;;;;;;;;;21.57;25.06;100432.95;1783057;80;20282;-76
2021/05/10 12:58:50;;;;;;;;;;;;;;;21.42;26.60;100426.98;1770211;80;20241;-81
2021/05/10 13:01:26;;;;;;;;;;;;;;;21.56;26.90;100425.75;1754929;81;20172;-77
2021/05/10 13:04:00;;;;;;;;;;;;;;;21.77;25.31;100435.94;1778125;81;20120;-77
2021/05/10 13:06:30;;;;;;;;;;;;;;;21.74;24.76;100430.89;1778309;81;20258;-80
2021/05/10 13:09:01;;;;;;;;;;;;;;;21.46;24.80;100434.27;1778669;81;20132;-80
2021/05/10 13:14:23;;;;;;;;;;;;;;;21.28;25.75;100417.25;1742768;82;20138;-80
2021/05/10 13:36:24;;;;;;;;;;;;;;;21.33;24.52;100378.34;1808044;79;20218;-80